sensor_id;sensor_type;location;lat;lon;timestamp;temperature;humidity
21815;DHT22;11069;48.988;8.450;2023-07-13T00:01:15;18.10;99.90
21815;DHT22;11069;48.988;8.450;2023-07-13T00:03:41;18.00;99.90
21815;DHT22;11069;48.988;8.450;2023-07-13T00:06:07;17.90;99.90
21815;DHT22;11069;48.988;8.450;2023-07-13T00:08:34;17.90;99.90
21815;DHT22;11069;48.988;8.450;2023-07-13T00:11:01;17.70;99.90
21815;DHT22;11069;48.988;8.450;2023-07-13T00:13:30;17.70;99.90
21815;DHT22;11069;48.988;8.450;2023-07-13T00:15:58;17.60;99.90
21815;DHT22;11069;48.988;8.450;2023-07-13T00:18:24;17.40;99.90
21815;DHT22;11069;48.988;8.450;2023-07-13T00:20:49;17.30;99.90
21815;DHT22;11069;48.988;8.450;2023-07-13T00:23:15;17.30;99.90
21815;DHT22;11069;48.988;8.450;2023-07-13T00:25:42;17.20;99.90
21815;DHT22;11069;48.988;8.450;2023-07-13T00:28:08;17.20;99.90
21815;DHT22;11069;48.988;8.450;2023-07-13T00:30:33;17.20;99.90
21815;DHT22;11069;48.988;8.450;2023-07-13T00:32:59;17.10;99.90
21815;DHT22;11069;48.988;8.450;2023-07-13T00:35:27;17.10;99.90
21815;DHT22;11069;48.988;8.450;2023-07-13T00:37:58;17.20;99.90
21815;DHT22;11069;48.988;8.450;2023-07-13T00:40:24;17.20;99.90
21815;DHT22;11069;48.988;8.450;2023-07-13T00:42:52;17.30;99.90
21815;DHT22;11069;48.988;8.450;2023-07-13T00:47:43;17.40;99.90
21815;DHT22;11069;48.988;8.450;2023-07-13T00:50:13;17.30;99.90
21815;DHT22;11069;48.988;8.450;2023-07-13T00:52:41;17.30;99.90
21815;DHT22;11069;48.988;8.450;2023-07-13T00:55:07;17.20;99.90
21815;DHT22;11069;48.988;8.450;2023-07-13T00:57:35;17.00;99.90
21815;DHT22;11069;48.988;8.450;2023-07-13T01:00:03;17.00;99.90
21815;DHT22;11069;48.988;8.450;2023-07-13T01:02:38;16.70;99.90
21815;DHT22;11069;48.988;8.450;2023-07-13T01:05:13;16.80;99.90
21815;DHT22;11069;48.988;8.450;2023-07-13T01:07:39;16.80;99.90
21815;DHT22;11069;48.988;8.450;2023-07-13T01:10:07;16.70;99.90
21815;DHT22;11069;48.988;8.450;2023-07-13T01:12:32;16.70;99.90
21815;DHT22;11069;48.988;8.450;2023-07-13T01:15:34;16.70;99.90
21815;DHT22;11069;48.988;8.450;2023-07-13T01:18:01;17.00;99.90
21815;DHT22;11069;48.988;8.450;2023-07-13T01:20:27;17.00;99.90
21815;DHT22;11069;48.988;8.450;2023-07-13T01:22:52;17.10;99.90
21815;DHT22;11069;48.988;8.450;2023-07-13T01:25:19;17.10;99.90
21815;DHT22;11069;48.988;8.450;2023-07-13T01:27:45;17.10;99.90
21815;DHT22;11069;48.988;8.450;2023-07-13T01:30:11;17.00;99.90
21815;DHT22;11069;48.988;8.450;2023-07-13T01:32:39;17.10;99.90
21815;DHT22;11069;48.988;8.450;2023-07-13T01:35:07;17.10;99.90
21815;DHT22;11069;48.988;8.450;2023-07-13T01:37:33;17.00;99.90
21815;DHT22;11069;48.988;8.450;2023-07-13T01:40:02;17.00;99.90
21815;DHT22;11069;48.988;8.450;2023-07-13T01:42:28;17.00;99.90
21815;DHT22;11069;48.988;8.450;2023-07-13T01:44:56;16.90;99.90
21815;DHT22;11069;48.988;8.450;2023-07-13T01:47:23;16.90;99.90
21815;DHT22;11069;48.988;8.450;2023-07-13T01:49:49;16.80;99.90
21815;DHT22;11069;48.988;8.450;2023-07-13T01:52:16;16.60;99.90
21815;DHT22;11069;48.988;8.450;2023-07-13T01:54:41;16.40;99.90
21815;DHT22;11069;48.988;8.450;2023-07-13T01:57:07;16.40;99.90
21815;DHT22;11069;48.988;8.450;2023-07-13T01:59:32;16.30;99.90
21815;DHT22;11069;48.988;8.450;2023-07-13T02:01:58;16.30;99.90
21815;DHT22;11069;48.988;8.450;2023-07-13T02:04:24;16.30;99.90
21815;DHT22;11069;48.988;8.450;2023-07-13T02:06:49;16.30;99.90
21815;DHT22;11069;48.988;8.450;2023-07-13T02:09:18;16.20;99.90
21815;DHT22;11069;48.988;8.450;2023-07-13T02:11:43;16.10;99.90
21815;DHT22;11069;48.988;8.450;2023-07-13T02:14:09;15.90;99.90
21815;DHT22;11069;48.988;8.450;2023-07-13T02:16:34;15.90;99.90
21815;DHT22;11069;48.988;8.450;2023-07-13T02:19:03;15.70;99.90
21815;DHT22;11069;48.988;8.450;2023-07-13T02:21:28;15.70;99.90
21815;DHT22;11069;48.988;8.450;2023-07-13T02:23:54;15.70;99.90
21815;DHT22;11069;48.988;8.450;2023-07-13T02:26:20;15.70;99.90
21815;DHT22;11069;48.988;8.450;2023-07-13T02:28:46;15.70;99.90
21815;DHT22;11069;48.988;8.450;2023-07-13T02:31:14;15.70;99.90
21815;DHT22;11069;48.988;8.450;2023-07-13T02:33:40;15.60;99.90
21815;DHT22;11069;48.988;8.450;2023-07-13T02:36:06;15.50;99.90
21815;DHT22;11069;48.988;8.450;2023-07-13T02:38:32;15.50;99.90
21815;DHT22;11069;48.988;8.450;2023-07-13T02:41:05;15.50;99.90
21815;DHT22;11069;48.988;8.450;2023-07-13T02:43:34;15.40;99.90
21815;DHT22;11069;48.988;8.450;2023-07-13T02:46:00;15.30;99.90
21815;DHT22;11069;48.988;8.450;2023-07-13T02:48:36;15.20;99.90
21815;DHT22;11069;48.988;8.450;2023-07-13T02:51:02;15.20;99.90
21815;DHT22;11069;48.988;8.450;2023-07-13T02:53:28;15.10;99.90
21815;DHT22;11069;48.988;8.450;2023-07-13T02:55:54;15.00;99.90
21815;DHT22;11069;48.988;8.450;2023-07-13T02:58:19;15.00;99.90
21815;DHT22;11069;48.988;8.450;2023-07-13T03:00:47;14.90;99.90
21815;DHT22;11069;48.988;8.450;2023-07-13T03:03:14;15.00;99.90
21815;DHT22;11069;48.988;8.450;2023-07-13T03:05:42;14.90;99.90
21815;DHT22;11069;48.988;8.450;2023-07-13T03:08:11;14.80;99.90
21815;DHT22;11069;48.988;8.450;2023-07-13T03:10:37;14.80;99.90
21815;DHT22;11069;48.988;8.450;2023-07-13T03:13:05;14.80;99.90
21815;DHT22;11069;48.988;8.450;2023-07-13T03:15:31;14.90;99.90
21815;DHT22;11069;48.988;8.450;2023-07-13T03:17:59;14.80;99.90
21815;DHT22;11069;48.988;8.450;2023-07-13T03:20:25;14.70;99.90
21815;DHT22;11069;48.988;8.450;2023-07-13T03:22:50;14.70;99.90
21815;DHT22;11069;48.988;8.450;2023-07-13T03:25:16;14.60;99.90
21815;DHT22;11069;48.988;8.450;2023-07-13T03:27:41;14.60;99.90
21815;DHT22;11069;48.988;8.450;2023-07-13T03:30:07;14.60;99.90
21815;DHT22;11069;48.988;8.450;2023-07-13T03:32:33;14.50;99.90
21815;DHT22;11069;48.988;8.450;2023-07-13T03:34:59;14.50;99.90
21815;DHT22;11069;48.988;8.450;2023-07-13T03:37:25;14.50;99.90
21815;DHT22;11069;48.988;8.450;2023-07-13T03:39:51;14.60;99.90
21815;DHT22;11069;48.988;8.450;2023-07-13T03:42:16;14.60;99.90
21815;DHT22;11069;48.988;8.450;2023-07-13T03:44:42;14.60;99.90
21815;DHT22;11069;48.988;8.450;2023-07-13T03:47:11;14.70;99.90
21815;DHT22;11069;48.988;8.450;2023-07-13T03:49:37;14.80;99.90
21815;DHT22;11069;48.988;8.450;2023-07-13T03:52:02;14.70;99.90
21815;DHT22;11069;48.988;8.450;2023-07-13T03:54:28;14.70;99.90
21815;DHT22;11069;48.988;8.450;2023-07-13T03:56:53;14.70;99.90
21815;DHT22;11069;48.988;8.450;2023-07-13T03:59:19;14.70;99.90
21815;DHT22;11069;48.988;8.450;2023-07-13T04:01:45;14.70;99.90
21815;DHT22;11069;48.988;8.450;2023-07-13T04:04:10;14.60;99.90
21815;DHT22;11069;48.988;8.450;2023-07-13T04:06:36;14.60;99.90
21815;DHT22;11069;48.988;8.450;2023-07-13T04:09:03;14.60;99.90
21815;DHT22;11069;48.988;8.450;2023-07-13T04:11:32;14.60;99.90
21815;DHT22;11069;48.988;8.450;2023-07-13T04:13:58;14.70;99.90
21815;DHT22;11069;48.988;8.450;2023-07-13T04:16:25;14.70;99.90
21815;DHT22;11069;48.988;8.450;2023-07-13T04:18:51;14.70;99.90
21815;DHT22;11069;48.988;8.450;2023-07-13T04:21:20;14.70;99.90
21815;DHT22;11069;48.988;8.450;2023-07-13T04:23:47;14.70;99.90
21815;DHT22;11069;48.988;8.450;2023-07-13T04:26:12;14.70;99.90
21815;DHT22;11069;48.988;8.450;2023-07-13T04:28:41;14.80;99.90
21815;DHT22;11069;48.988;8.450;2023-07-13T04:31:06;14.90;99.90
21815;DHT22;11069;48.988;8.450;2023-07-13T04:33:32;15.10;99.90
21815;DHT22;11069;48.988;8.450;2023-07-13T04:35:58;15.20;99.90
21815;DHT22;11069;48.988;8.450;2023-07-13T04:38:26;15.30;99.90
21815;DHT22;11069;48.988;8.450;2023-07-13T04:40:57;15.60;99.90
21815;DHT22;11069;48.988;8.450;2023-07-13T04:43:27;15.60;99.90
21815;DHT22;11069;48.988;8.450;2023-07-13T04:45:53;15.70;99.90
21815;DHT22;11069;48.988;8.450;2023-07-13T04:48:19;15.80;99.90
21815;DHT22;11069;48.988;8.450;2023-07-13T04:50:46;15.90;99.90
21815;DHT22;11069;48.988;8.450;2023-07-13T04:53:12;16.10;99.90
21815;DHT22;11069;48.988;8.450;2023-07-13T04:55:38;16.30;99.90
21815;DHT22;11069;48.988;8.450;2023-07-13T04:58:04;16.40;99.90
21815;DHT22;11069;48.988;8.450;2023-07-13T05:00:30;16.50;99.90
21815;DHT22;11069;48.988;8.450;2023-07-13T05:02:57;16.60;99.90
21815;DHT22;11069;48.988;8.450;2023-07-13T05:05:26;16.70;99.90
21815;DHT22;11069;48.988;8.450;2023-07-13T05:07:53;16.80;99.90
21815;DHT22;11069;48.988;8.450;2023-07-13T05:10:19;16.90;99.90
21815;DHT22;11069;48.988;8.450;2023-07-13T05:12:45;16.90;99.90
21815;DHT22;11069;48.988;8.450;2023-07-13T05:15:10;17.10;99.90
21815;DHT22;11069;48.988;8.450;2023-07-13T05:17:36;17.10;99.90
21815;DHT22;11069;48.988;8.450;2023-07-13T05:20:04;17.20;99.90
21815;DHT22;11069;48.988;8.450;2023-07-13T05:22:31;17.10;99.90
21815;DHT22;11069;48.988;8.450;2023-07-13T05:24:56;17.10;99.90
21815;DHT22;11069;48.988;8.450;2023-07-13T05:27:22;17.10;99.90
21815;DHT22;11069;48.988;8.450;2023-07-13T05:29:49;17.20;99.90
21815;DHT22;11069;48.988;8.450;2023-07-13T05:32:15;17.20;99.90
21815;DHT22;11069;48.988;8.450;2023-07-13T05:34:40;17.30;99.90
21815;DHT22;11069;48.988;8.450;2023-07-13T05:37:07;17.40;99.90
21815;DHT22;11069;48.988;8.450;2023-07-13T05:39:33;17.40;99.90
21815;DHT22;11069;48.988;8.450;2023-07-13T05:41:58;17.50;99.90
21815;DHT22;11069;48.988;8.450;2023-07-13T05:44:24;17.60;99.90
21815;DHT22;11069;48.988;8.450;2023-07-13T05:46:49;17.70;99.90
21815;DHT22;11069;48.988;8.450;2023-07-13T05:49:15;17.70;99.90
21815;DHT22;11069;48.988;8.450;2023-07-13T05:51:41;17.80;99.90
21815;DHT22;11069;48.988;8.450;2023-07-13T05:54:06;18.00;99.90
21815;DHT22;11069;48.988;8.450;2023-07-13T05:56:32;18.00;99.90
21815;DHT22;11069;48.988;8.450;2023-07-13T05:58:57;18.10;99.90
21815;DHT22;11069;48.988;8.450;2023-07-13T06:01:23;18.20;99.90
21815;DHT22;11069;48.988;8.450;2023-07-13T06:03:49;18.30;99.90
21815;DHT22;11069;48.988;8.450;2023-07-13T06:06:15;18.60;99.90
21815;DHT22;11069;48.988;8.450;2023-07-13T06:08:41;18.90;99.90
21815;DHT22;11069;48.988;8.450;2023-07-13T06:11:12;19.30;99.90
21815;DHT22;11069;48.988;8.450;2023-07-13T06:13:39;19.90;99.90
21815;DHT22;11069;48.988;8.450;2023-07-13T06:16:04;20.60;99.90
21815;DHT22;11069;48.988;8.450;2023-07-13T06:18:32;21.50;99.90
21815;DHT22;11069;48.988;8.450;2023-07-13T06:20:59;23.20;99.90
21815;DHT22;11069;48.988;8.450;2023-07-13T06:23:25;25.00;99.90
21815;DHT22;11069;48.988;8.450;2023-07-13T06:25:51;26.00;98.90
21815;DHT22;11069;48.988;8.450;2023-07-13T06:28:17;26.10;96.30
21815;DHT22;11069;48.988;8.450;2023-07-13T06:30:42;26.00;95.70
21815;DHT22;11069;48.988;8.450;2023-07-13T06:33:09;25.50;96.00
21815;DHT22;11069;48.988;8.450;2023-07-13T06:35:34;24.20;96.80
21815;DHT22;11069;48.988;8.450;2023-07-13T06:38:00;24.20;98.90
21815;DHT22;11069;48.988;8.450;2023-07-13T06:40:26;25.20;97.40
21815;DHT22;11069;48.988;8.450;2023-07-13T06:42:54;25.70;96.20
21815;DHT22;11069;48.988;8.450;2023-07-13T06:45:19;27.00;95.10
21815;DHT22;11069;48.988;8.450;2023-07-13T06:47:45;26.90;94.20
21815;DHT22;11069;48.988;8.450;2023-07-13T06:50:10;28.30;93.80
21815;DHT22;11069;48.988;8.450;2023-07-13T06:52:36;28.30;92.10
21815;DHT22;11069;48.988;8.450;2023-07-13T06:55:01;28.60;91.70
21815;DHT22;11069;48.988;8.450;2023-07-13T06:57:27;28.10;91.00
21815;DHT22;11069;48.988;8.450;2023-07-13T06:59:52;27.70;91.40
21815;DHT22;11069;48.988;8.450;2023-07-13T07:02:18;28.00;91.40
21815;DHT22;11069;48.988;8.450;2023-07-13T07:04:44;28.80;90.60
21815;DHT22;11069;48.988;8.450;2023-07-13T07:07:12;28.50;89.60
21815;DHT22;11069;48.988;8.450;2023-07-13T07:09:38;28.30;89.80
21815;DHT22;11069;48.988;8.450;2023-07-13T07:12:04;28.30;90.80
21815;DHT22;11069;48.988;8.450;2023-07-13T07:14:30;28.30;90.70
21815;DHT22;11069;48.988;8.450;2023-07-13T07:16:56;28.30;90.30
21815;DHT22;11069;48.988;8.450;2023-07-13T07:19:23;28.30;91.30
21815;DHT22;11069;48.988;8.450;2023-07-13T07:21:49;28.10;90.30
21815;DHT22;11069;48.988;8.450;2023-07-13T07:24:15;27.60;91.10
21815;DHT22;11069;48.988;8.450;2023-07-13T07:26:41;27.20;91.00
21815;DHT22;11069;48.988;8.450;2023-07-13T07:29:07;27.20;92.10
21815;DHT22;11069;48.988;8.450;2023-07-13T07:31:32;26.70;91.80
21815;DHT22;11069;48.988;8.450;2023-07-13T07:33:58;26.30;92.60
21815;DHT22;11069;48.988;8.450;2023-07-13T07:36:23;26.10;92.50
21815;DHT22;11069;48.988;8.450;2023-07-13T07:38:49;25.80;93.30
21815;DHT22;11069;48.988;8.450;2023-07-13T07:41:14;25.30;92.70
21815;DHT22;11069;48.988;8.450;2023-07-13T07:43:40;24.90;92.20
21815;DHT22;11069;48.988;8.450;2023-07-13T07:46:06;24.90;93.50
21815;DHT22;11069;48.988;8.450;2023-07-13T07:48:31;24.80;93.40
21815;DHT22;11069;48.988;8.450;2023-07-13T07:50:57;25.30;93.30
21815;DHT22;11069;48.988;8.450;2023-07-13T07:53:23;25.50;91.50
21815;DHT22;11069;48.988;8.450;2023-07-13T07:55:48;26.00;91.80
21815;DHT22;11069;48.988;8.450;2023-07-13T07:58:14;25.70;86.00
21815;DHT22;11069;48.988;8.450;2023-07-13T08:00:40;25.70;90.20
21815;DHT22;11069;48.988;8.450;2023-07-13T08:03:06;25.60;90.60
21815;DHT22;11069;48.988;8.450;2023-07-13T08:05:31;24.70;91.10
21815;DHT22;11069;48.988;8.450;2023-07-13T08:08:00;25.20;91.30
21815;DHT22;11069;48.988;8.450;2023-07-13T08:10:25;25.70;89.30
21815;DHT22;11069;48.988;8.450;2023-07-13T08:12:51;25.60;89.50
21815;DHT22;11069;48.988;8.450;2023-07-13T08:15:17;25.40;90.10
21815;DHT22;11069;48.988;8.450;2023-07-13T08:17:43;25.30;91.20
21815;DHT22;11069;48.988;8.450;2023-07-13T08:20:09;25.60;90.40
21815;DHT22;11069;48.988;8.450;2023-07-13T08:22:35;25.80;88.90
21815;DHT22;11069;48.988;8.450;2023-07-13T08:25:01;25.40;88.90
21815;DHT22;11069;48.988;8.450;2023-07-13T08:27:28;25.30;88.30
21815;DHT22;11069;48.988;8.450;2023-07-13T08:29:54;25.30;90.70
21815;DHT22;11069;48.988;8.450;2023-07-13T08:32:21;25.50;89.50
21815;DHT22;11069;48.988;8.450;2023-07-13T08:34:47;25.60;90.70
21815;DHT22;11069;48.988;8.450;2023-07-13T08:37:13;25.10;87.40
21815;DHT22;11069;48.988;8.450;2023-07-13T08:39:39;24.80;89.60
21815;DHT22;11069;48.988;8.450;2023-07-13T08:42:11;25.10;85.50
21815;DHT22;11069;48.988;8.450;2023-07-13T08:47:30;25.00;86.40
21815;DHT22;11069;48.988;8.450;2023-07-13T08:49:56;24.10;86.20
21815;DHT22;11069;48.988;8.450;2023-07-13T08:52:42;23.90;89.50
21815;DHT22;11069;48.988;8.450;2023-07-13T08:55:33;24.50;90.60
21815;DHT22;11069;48.988;8.450;2023-07-13T08:58:17;24.80;89.00
21815;DHT22;11069;48.988;8.450;2023-07-13T09:03:46;25.70;85.20
21815;DHT22;11069;48.988;8.450;2023-07-13T09:06:16;25.50;85.50
21815;DHT22;11069;48.988;8.450;2023-07-13T09:08:59;25.80;82.90
21815;DHT22;11069;48.988;8.450;2023-07-13T09:11:55;26.00;84.30
21815;DHT22;11069;48.988;8.450;2023-07-13T09:17:17;26.30;83.20
21815;DHT22;11069;48.988;8.450;2023-07-13T09:19:46;26.60;79.30
21815;DHT22;11069;48.988;8.450;2023-07-13T09:22:16;26.40;82.80
21815;DHT22;11069;48.988;8.450;2023-07-13T09:24:53;26.60;79.40
21815;DHT22;11069;48.988;8.450;2023-07-13T09:27:30;26.70;77.10
21815;DHT22;11069;48.988;8.450;2023-07-13T09:32:34;26.50;83.80
21815;DHT22;11069;48.988;8.450;2023-07-13T09:35:01;26.40;83.60
21815;DHT22;11069;48.988;8.450;2023-07-13T09:37:34;26.80;82.60
21815;DHT22;11069;48.988;8.450;2023-07-13T09:40:01;26.80;81.70
21815;DHT22;11069;48.988;8.450;2023-07-13T09:42:31;26.80;76.70
21815;DHT22;11069;48.988;8.450;2023-07-13T09:45:00;26.30;77.10
21815;DHT22;11069;48.988;8.450;2023-07-13T09:47:33;26.10;79.80
21815;DHT22;11069;48.988;8.450;2023-07-13T09:50:14;26.10;79.90
21815;DHT22;11069;48.988;8.450;2023-07-13T09:52:46;26.00;77.90
21815;DHT22;11069;48.988;8.450;2023-07-13T09:55:34;26.80;80.40
21815;DHT22;11069;48.988;8.450;2023-07-13T09:58:22;26.80;79.00
21815;DHT22;11069;48.988;8.450;2023-07-13T10:01:01;26.00;81.80
21815;DHT22;11069;48.988;8.450;2023-07-13T10:03:35;26.90;83.40
21815;DHT22;11069;48.988;8.450;2023-07-13T10:06:25;27.80;80.10
21815;DHT22;11069;48.988;8.450;2023-07-13T10:08:56;27.70;74.60
21815;DHT22;11069;48.988;8.450;2023-07-13T10:11:24;27.80;73.10
21815;DHT22;11069;48.988;8.450;2023-07-13T10:14:00;28.00;76.60
21815;DHT22;11069;48.988;8.450;2023-07-13T10:16:30;28.40;71.80
21815;DHT22;11069;48.988;8.450;2023-07-13T10:19:17;27.80;71.20
21815;DHT22;11069;48.988;8.450;2023-07-13T10:21:58;27.20;75.70
21815;DHT22;11069;48.988;8.450;2023-07-13T10:24:33;26.30;74.20
21815;DHT22;11069;48.988;8.450;2023-07-13T10:30:02;26.40;82.80
21815;DHT22;11069;48.988;8.450;2023-07-13T10:32:29;27.40;74.20
21815;DHT22;11069;48.988;8.450;2023-07-13T10:34:55;27.70;76.10
21815;DHT22;11069;48.988;8.450;2023-07-13T10:37:26;27.90;73.10
21815;DHT22;11069;48.988;8.450;2023-07-13T10:39:54;27.30;72.40
21815;DHT22;11069;48.988;8.450;2023-07-13T10:42:44;27.60;72.80
21815;DHT22;11069;48.988;8.450;2023-07-13T10:45:18;27.50;73.10
21815;DHT22;11069;48.988;8.450;2023-07-13T10:47:45;27.70;71.30
21815;DHT22;11069;48.988;8.450;2023-07-13T10:50:19;27.90;70.50
21815;DHT22;11069;48.988;8.450;2023-07-13T10:52:48;27.90;69.80
21815;DHT22;11069;48.988;8.450;2023-07-13T10:55:55;27.80;70.90
21815;DHT22;11069;48.988;8.450;2023-07-13T10:58:24;28.10;71.50
21815;DHT22;11069;48.988;8.450;2023-07-13T11:03:30;27.10;71.70
21815;DHT22;11069;48.988;8.450;2023-07-13T11:09:18;27.80;70.70
21815;DHT22;11069;48.988;8.450;2023-07-13T11:55:28;28.50;66.80
21815;DHT22;11069;48.988;8.450;2023-07-13T11:57:58;28.30;65.60
21815;DHT22;11069;48.988;8.450;2023-07-13T12:00:28;29.10;64.00
21815;DHT22;11069;48.988;8.450;2023-07-13T12:02:57;29.20;64.00
21815;DHT22;11069;48.988;8.450;2023-07-13T12:05:24;28.60;66.00
21815;DHT22;11069;48.988;8.450;2023-07-13T12:07:51;28.10;67.90
21815;DHT22;11069;48.988;8.450;2023-07-13T12:13:00;27.40;67.20
21815;DHT22;11069;48.988;8.450;2023-07-13T12:15:41;27.20;70.30
21815;DHT22;11069;48.988;8.450;2023-07-13T12:18:21;27.90;74.10
21815;DHT22;11069;48.988;8.450;2023-07-13T12:20:48;27.60;72.40
21815;DHT22;11069;48.988;8.450;2023-07-13T12:23:32;27.20;68.10
21815;DHT22;11069;48.988;8.450;2023-07-13T12:26:02;27.30;68.60
21815;DHT22;11069;48.988;8.450;2023-07-13T12:31:36;28.10;69.10
21815;DHT22;11069;48.988;8.450;2023-07-13T12:34:12;28.00;67.60
21815;DHT22;11069;48.988;8.450;2023-07-13T12:36:44;28.50;64.40
21815;DHT22;11069;48.988;8.450;2023-07-13T12:39:28;28.20;72.00
21815;DHT22;11069;48.988;8.450;2023-07-13T12:42:27;28.70;70.10
21815;DHT22;11069;48.988;8.450;2023-07-13T12:45:03;29.30;64.50
21815;DHT22;11069;48.988;8.450;2023-07-13T12:47:40;29.30;63.20
21815;DHT22;11069;48.988;8.450;2023-07-13T12:50:18;28.80;68.20
21815;DHT22;11069;48.988;8.450;2023-07-13T12:52:49;28.70;64.20
21815;DHT22;11069;48.988;8.450;2023-07-13T12:55:18;28.20;64.80
21815;DHT22;11069;48.988;8.450;2023-07-13T12:57:55;27.90;67.20
21815;DHT22;11069;48.988;8.450;2023-07-13T13:00:26;28.20;70.00
21815;DHT22;11069;48.988;8.450;2023-07-13T13:02:53;28.10;66.10
21815;DHT22;11069;48.988;8.450;2023-07-13T13:05:19;28.60;63.80
21815;DHT22;11069;48.988;8.450;2023-07-13T13:07:45;27.90;66.40
21815;DHT22;11069;48.988;8.450;2023-07-13T13:10:13;27.40;70.60
21815;DHT22;11069;48.988;8.450;2023-07-13T13:12:39;27.70;68.00
21815;DHT22;11069;48.988;8.450;2023-07-13T13:15:08;27.80;69.30
21815;DHT22;11069;48.988;8.450;2023-07-13T13:17:34;27.40;65.70
21815;DHT22;11069;48.988;8.450;2023-07-13T13:19:59;26.70;67.00
21815;DHT22;11069;48.988;8.450;2023-07-13T13:22:25;26.90;66.70
21815;DHT22;11069;48.988;8.450;2023-07-13T13:24:51;28.10;68.10
21815;DHT22;11069;48.988;8.450;2023-07-13T13:27:18;28.90;68.80
21815;DHT22;11069;48.988;8.450;2023-07-13T13:29:45;28.40;66.10
21815;DHT22;11069;48.988;8.450;2023-07-13T13:32:14;27.40;69.90
21815;DHT22;11069;48.988;8.450;2023-07-13T13:34:40;26.70;67.70
21815;DHT22;11069;48.988;8.450;2023-07-13T13:37:21;27.70;67.10
21815;DHT22;11069;48.988;8.450;2023-07-13T13:39:48;28.90;64.20
21815;DHT22;11069;48.988;8.450;2023-07-13T13:42:14;29.40;68.20
21815;DHT22;11069;48.988;8.450;2023-07-13T13:44:40;29.20;61.10
21815;DHT22;11069;48.988;8.450;2023-07-13T13:47:31;29.40;59.60
21815;DHT22;11069;48.988;8.450;2023-07-13T13:49:58;29.70;64.40
21815;DHT22;11069;48.988;8.450;2023-07-13T13:52:24;30.20;60.30
21815;DHT22;11069;48.988;8.450;2023-07-13T13:54:51;29.90;61.50
21815;DHT22;11069;48.988;8.450;2023-07-13T13:57:24;29.40;60.70
21815;DHT22;11069;48.988;8.450;2023-07-13T13:59:51;29.20;66.10
21815;DHT22;11069;48.988;8.450;2023-07-13T14:04:49;30.60;67.80
21815;DHT22;11069;48.988;8.450;2023-07-13T14:07:16;30.40;60.10
21815;DHT22;11069;48.988;8.450;2023-07-13T14:09:41;28.80;62.60
21815;DHT22;11069;48.988;8.450;2023-07-13T14:12:09;28.40;61.90
21815;DHT22;11069;48.988;8.450;2023-07-13T14:14:40;28.20;64.40
21815;DHT22;11069;48.988;8.450;2023-07-13T14:17:36;28.00;67.80
21815;DHT22;11069;48.988;8.450;2023-07-13T14:20:02;28.70;66.70
21815;DHT22;11069;48.988;8.450;2023-07-13T14:22:29;28.60;63.20
21815;DHT22;11069;48.988;8.450;2023-07-13T14:24:55;28.00;62.00
21815;DHT22;11069;48.988;8.450;2023-07-13T14:27:23;28.30;63.80
21815;DHT22;11069;48.988;8.450;2023-07-13T14:29:49;29.50;66.30
21815;DHT22;11069;48.988;8.450;2023-07-13T14:32:15;28.80;62.80
21815;DHT22;11069;48.988;8.450;2023-07-13T14:34:41;28.40;60.70
21815;DHT22;11069;48.988;8.450;2023-07-13T14:37:13;28.10;62.60
21815;DHT22;11069;48.988;8.450;2023-07-13T14:39:40;28.40;64.20
21815;DHT22;11069;48.988;8.450;2023-07-13T14:42:09;28.40;69.50
21815;DHT22;11069;48.988;8.450;2023-07-13T14:44:35;29.20;64.70
21815;DHT22;11069;48.988;8.450;2023-07-13T14:47:03;29.00;65.30
21815;DHT22;11069;48.988;8.450;2023-07-13T14:49:34;29.50;61.60
21815;DHT22;11069;48.988;8.450;2023-07-13T14:52:03;28.60;62.00
21815;DHT22;11069;48.988;8.450;2023-07-13T14:54:31;28.50;63.60
21815;DHT22;11069;48.988;8.450;2023-07-13T14:56:56;29.40;63.50
21815;DHT22;11069;48.988;8.450;2023-07-13T14:59:22;29.90;60.50
21815;DHT22;11069;48.988;8.450;2023-07-13T15:01:49;30.30;67.20
21815;DHT22;11069;48.988;8.450;2023-07-13T15:04:15;30.20;64.70
21815;DHT22;11069;48.988;8.450;2023-07-13T15:06:58;30.00;61.90
21815;DHT22;11069;48.988;8.450;2023-07-13T15:09:25;29.70;63.80
21815;DHT22;11069;48.988;8.450;2023-07-13T15:11:54;29.50;64.90
21815;DHT22;11069;48.988;8.450;2023-07-13T15:14:19;29.50;60.10
21815;DHT22;11069;48.988;8.450;2023-07-13T15:16:47;29.50;64.90
21815;DHT22;11069;48.988;8.450;2023-07-13T15:19:15;30.00;65.50
21815;DHT22;11069;48.988;8.450;2023-07-13T15:21:41;30.30;65.80
21815;DHT22;11069;48.988;8.450;2023-07-13T15:24:10;28.90;63.30
21815;DHT22;11069;48.988;8.450;2023-07-13T15:26:35;28.80;65.70
21815;DHT22;11069;48.988;8.450;2023-07-13T15:29:01;28.80;64.10
21815;DHT22;11069;48.988;8.450;2023-07-13T15:31:28;29.30;62.70
21815;DHT22;11069;48.988;8.450;2023-07-13T15:33:56;29.80;59.50
21815;DHT22;11069;48.988;8.450;2023-07-13T15:36:23;29.60;63.10
21815;DHT22;11069;48.988;8.450;2023-07-13T15:38:52;29.70;62.20
21815;DHT22;11069;48.988;8.450;2023-07-13T15:41:25;29.90;64.10
21815;DHT22;11069;48.988;8.450;2023-07-13T15:43:54;30.30;64.10
21815;DHT22;11069;48.988;8.450;2023-07-13T15:46:22;30.30;63.50
21815;DHT22;11069;48.988;8.450;2023-07-13T15:48:49;30.00;60.50
21815;DHT22;11069;48.988;8.450;2023-07-13T15:51:29;30.40;62.10
21815;DHT22;11069;48.988;8.450;2023-07-13T15:53:59;30.40;67.30
21815;DHT22;11069;48.988;8.450;2023-07-13T15:56:29;29.80;61.90
21815;DHT22;11069;48.988;8.450;2023-07-13T15:58:56;29.00;59.60
21815;DHT22;11069;48.988;8.450;2023-07-13T16:01:23;29.20;63.90
21815;DHT22;11069;48.988;8.450;2023-07-13T16:03:49;30.20;60.90
21815;DHT22;11069;48.988;8.450;2023-07-13T16:06:29;30.10;61.80
21815;DHT22;11069;48.988;8.450;2023-07-13T16:08:56;29.40;64.70
21815;DHT22;11069;48.988;8.450;2023-07-13T16:11:26;28.80;65.00
21815;DHT22;11069;48.988;8.450;2023-07-13T16:13:52;27.90;63.10
21815;DHT22;11069;48.988;8.450;2023-07-13T16:16:30;28.40;66.10
21815;DHT22;11069;48.988;8.450;2023-07-13T16:18:58;29.40;68.40
21815;DHT22;11069;48.988;8.450;2023-07-13T16:21:29;29.50;61.30
21815;DHT22;11069;48.988;8.450;2023-07-13T16:23:55;28.80;61.50
21815;DHT22;11069;48.988;8.450;2023-07-13T16:28:54;28.60;61.50
21815;DHT22;11069;48.988;8.450;2023-07-13T16:31:29;28.70;68.70
21815;DHT22;11069;48.988;8.450;2023-07-13T16:33:56;29.10;65.40
21815;DHT22;11069;48.988;8.450;2023-07-13T16:36:24;29.10;61.80
21815;DHT22;11069;48.988;8.450;2023-07-13T16:38:50;28.30;63.30
21815;DHT22;11069;48.988;8.450;2023-07-13T16:41:16;28.50;61.80
21815;DHT22;11069;48.988;8.450;2023-07-13T16:43:42;28.80;62.80
21815;DHT22;11069;48.988;8.450;2023-07-13T16:46:11;28.50;62.60
21815;DHT22;11069;48.988;8.450;2023-07-13T16:48:39;28.30;66.60
21815;DHT22;11069;48.988;8.450;2023-07-13T16:51:05;27.60;67.40
21815;DHT22;11069;48.988;8.450;2023-07-13T16:53:33;27.10;64.00
21815;DHT22;11069;48.988;8.450;2023-07-13T16:55:59;27.00;65.40